This is the latest recevied weather packets stored in our database for station/object KB2SKP. If no packets are shown the sender has not sent any weather packets the latest 10 day(s).
| Time | Temp. | Humidity | Pressure | Rain* | Wind** | Luminosity | Snow |
|---|---|---|---|---|---|---|---|
| 1777580992 | 21.67° C | 40% | 1004.1 hPa | 0 mm | - | 65 W/m² | - |
| 1777580692 | 21.67° C | 39% | 1004.2 hPa | 0 mm | - | 71 W/m² | - |
| 1777579781 | 21.11° C | 39% | 1003.8 hPa | 0 mm | - | 70 W/m² | - |
| 1777579478 | 21.11° C | 38% | 1004 hPa | 0 mm | - | 57 W/m² | - |
| 1777579174 | 21.11° C | 38% | 1004 hPa | 0 mm | - | 64 W/m² | - |
| 1777578869 | 21.11° C | 38% | 1004.1 hPa | 0 mm | - | 61 W/m² | - |
| 1777578565 | 21.11° C | 39% | 1004.1 hPa | 0 mm | - | 59 W/m² | - |
| 1777578260 | 21.11° C | 40% | 1004 hPa | 0 mm | - | 48 W/m² | - |
| 1777577349 | 21.11° C | 42% | 1004 hPa | 0 mm | - | 64 W/m² | - |
| 1777577044 | 20.56° C | 42% | 1004.1 hPa | 0 mm | - | 146 W/m² | - |
| 1777576440 | 21.11° C | 42% | 1004 hPa | 0 mm | - | 43 W/m² | - |
| 1777575225 | 20.56° C | 42% | 1004.2 hPa | 0 mm | - | 84 W/m² | - |
| 1777573710 | 20.56° C | 44% | 1004.3 hPa | 0 mm | - | 59 W/m² | - |
| 1777573407 | 19.44° C | 42% | 1004.5 hPa | 0 mm | - | 369 W/m² | - |
| 1777572495 | 20.56° C | 40% | 1004.2 hPa | 0 mm | - | 89 W/m² | - |
| 1777571279 | 20° C | 43% | 1004.3 hPa | 0 mm | - | 94 W/m² | - |
| 1777570368 | 20° C | 42% | 1004.6 hPa | 0 mm | - | 78 W/m² | - |
| 1777570063 | 20.56° C | 42% | 1004.4 hPa | 0 mm | - | 40 W/m² | - |
| 1777569759 | 20° C | 43% | 1004.5 hPa | 0 mm | - | 39 W/m² | - |
| 1777563387 | 18.33° C | 51% | 1004.8 hPa | 0 mm | - | 80 W/m² | - |
| 1777563082 | 17.78° C | 54% | 1004.8 hPa | 0 mm | - | 81 W/m² | - |
| 1777562778 | 17.78° C | 51% | 1004.9 hPa | 0 mm | - | 90 W/m² | - |
| 1777559744 | 16.67° C | 65% | 1005.2 hPa | 0 mm | - | 98 W/m² | - |
| 1777559442 | 16.67° C | 66% | 1005.5 hPa | 0 mm | - | 99 W/m² | - |
| 1777559139 | 16.11° C | 73% | 1005.4 hPa | 0 mm | - | 44 W/m² | - |
* Rain latest hour (hover to see other rain measurements)
** Current wind speed in m/s (hover to see current wind gust speed)